Edina, Minnesota
Current Conditions -  °F | °C
As of 2:03 PM on Sunday 21 Dec 2014 (Local Time) from KMSP Reporting Station
Light Rain Light Rain  
Wind Chill: 27°   Ceiling: 600
Heat Index: 35°   Visibility: 1.5mi
Dew Point: 34°   Wind: 10mph
Humidity: 96%   Direction: 150°SSE
Pressure: 29.76"   Gusts: NA
Location:  44.91°N, 93.35°W
Report Text: KMSP 212003Z 15009KT 1 1/2SM -RA BR OVC006 02/01 A2976 RMK AO2 TWR VIS 2 SNB1956E1958 P0001 T00170011 $
Loading
Personal Weather Stations






























Interactive Weather Map New forecast layout! Learn more

10-Day Weather Forecast

Advertisements
Track Severe Weather on mobile